Time;durP1;ratioP1;P1;durP2;ratioP2;P2;SDS_P1;SDS_P2;PMS_P1;PMS_P2;Temp;Humidity;BMP_temperature;BMP_pressure;BME280_temperature;BME280_humidity;BME280_pressure;Samples;Min_cycle;Max_cycle;Signal;HPM_P1;HPM_P2
2023/07/31 00:00:46;;;;;;;2.20;1.10;;;;;;;17.28;88.73;100248.88;5091276;28;20253;-83
2023/07/31 00:03:12;;;;;;;3.37;1.20;;;;;;;17.30;88.81;100238.81;5097448;28;20209;-83
2023/07/31 00:05:39;;;;;;;2.93;1.43;;;;;;;17.31;88.82;100228.91;5079310;28;20237;-82
2023/07/31 00:08:06;;;;;;;2.00;1.20;;;;;;;17.33;89.01;100240.38;5087927;28;20220;-82
2023/07/31 00:10:33;;;;;;;2.03;1.53;;;;;;;17.35;88.99;100233.00;5089115;28;20206;-83
2023/07/31 00:13:00;;;;;;;3.67;1.30;;;;;;;17.36;88.73;100223.94;5112675;28;20878;-83
2023/07/31 00:15:26;;;;;;;4.63;1.40;;;;;;;17.35;88.85;100233.00;5112233;28;20651;-82
2023/07/31 00:17:53;;;;;;;2.97;1.10;;;;;;;17.37;89.13;100232.84;5092158;28;20217;-81
2023/07/31 00:20:19;;;;;;;2.60;0.93;;;;;;;17.37;89.13;100225.63;5090796;28;20667;-83
2023/07/31 00:22:46;;;;;;;2.07;1.00;;;;;;;17.37;89.07;100220.25;5080647;28;20235;-83
2023/07/31 00:25:13;;;;;;;1.93;1.10;;;;;;;17.37;89.00;100227.47;5092272;28;20700;-83
2023/07/31 00:27:44;;;;;;;1.30;0.90;;;;;;;17.37;89.04;100231.00;5091955;28;20712;-82
2023/07/31 00:30:11;;;;;;;3.53;0.97;;;;;;;17.37;89.15;100222.09;5092308;28;20227;-83
2023/07/31 00:32:38;;;;;;;3.73;1.00;;;;;;;17.37;88.95;100222.09;5092199;28;20209;-82
2023/07/31 00:35:05;;;;;;;1.57;0.90;;;;;;;17.34;89.02;100220.53;5092313;28;20197;-82
2023/07/31 00:37:32;;;;;;;2.23;1.07;;;;;;;17.30;89.10;100225.38;5091706;28;20233;-82
2023/07/31 00:39:58;;;;;;;1.00;0.70;;;;;;;17.29;89.24;100212.91;5092073;28;20694;-81
2023/07/31 00:42:26;;;;;;;2.20;0.90;;;;;;;17.27;89.39;100209.50;5088673;28;20234;-82
2023/07/31 00:44:53;;;;;;;1.27;0.90;;;;;;;17.25;89.40;100208.81;5071718;28;20558;-82
2023/07/31 00:47:19;;;;;;;3.27;1.03;;;;;;;17.24;89.32;100203.56;5071410;28;20248;-82
2023/07/31 00:49:46;;;;;;;2.07;1.10;;;;;;;17.22;89.55;100210.94;5071876;28;20209;-83
2023/07/31 00:52:13;;;;;;;3.80;0.90;;;;;;;17.20;89.69;100208.41;5071532;28;20211;-82
2023/07/31 00:54:40;;;;;;;0.80;0.80;;;;;;;17.20;89.80;100203.03;5092506;28;20746;-83
2023/07/31 00:57:08;;;;;;;2.47;1.00;;;;;;;17.17;90.17;100206.03;5091815;28;20225;-83
2023/07/31 00:59:35;;;;;;;2.53;1.00;;;;;;;17.17;90.39;100208.72;5091741;28;20201;-82
2023/07/31 01:02:02;;;;;;;2.67;0.80;;;;;;;17.16;90.84;100196.28;5091407;28;20244;-82
2023/07/31 01:04:29;;;;;;;1.20;0.90;;;;;;;17.15;91.28;100197.28;5089954;28;20216;-82
2023/07/31 01:07:02;;;;;;;1.70;1.10;;;;;;;17.16;91.33;100201.66;5091504;28;20233;-82
2023/07/31 01:09:36;;;;;;;2.60;0.90;;;;;;;17.16;91.27;100190.91;5091801;28;20219;-82
2023/07/31 01:12:04;;;;;;;2.13;0.80;;;;;;;17.16;91.34;100193.59;5092206;28;20215;-83
2023/07/31 01:14:31;;;;;;;3.10;1.00;;;;;;;17.13;91.66;100196.56;5081297;28;20202;-82
2023/07/31 01:16:59;;;;;;;1.93;1.00;;;;;;;17.11;92.17;100182.41;5088812;28;20231;-82
2023/07/31 01:19:26;;;;;;;2.03;1.10;;;;;;;17.10;92.67;100178.03;5086808;28;20566;-83
2023/07/31 01:22:23;;;;;;;3.53;1.23;;;;;;;17.08;92.95;100171.09;5078430;28;20317;-83
2023/07/31 01:24:59;;;;;;;1.03;0.90;;;;;;;17.08;93.03;100166.56;5088236;28;20197;-83
2023/07/31 01:27:31;;;;;;;1.83;0.90;;;;;;;17.04;93.49;100157.09;5078286;28;20229;-82
2023/07/31 01:30:10;;;;;;;0.70;0.70;;;;;;;17.02;93.65;100162.63;5090668;28;20664;-82
2023/07/31 01:32:39;;;;;;;1.07;0.70;;;;;;;16.98;94.33;100155.03;5091723;28;20204;-83
2023/07/31 01:35:07;;;;;;;2.77;0.63;;;;;;;16.94;94.99;100151.78;5112068;28;20203;-83
2023/07/31 01:37:34;;;;;;;1.03;0.67;;;;;;;16.91;95.38;100148.53;5107562;28;20228;-83
2023/07/31 01:40:00;;;;;;;0.43;0.40;;;;;;;16.85;96.20;100151.81;5091622;28;20205;-82
2023/07/31 01:42:28;;;;;;;1.60;0.50;;;;;;;16.80;96.58;100146.06;5091323;28;20232;-83
2023/07/31 01:44:54;;;;;;;0.73;0.30;;;;;;;16.77;96.95;100138.28;5075636;28;20212;-82
2023/07/31 01:47:21;;;;;;;0.80;0.40;;;;;;;16.75;97.56;100134.91;5087525;28;20231;-83
2023/07/31 01:49:47;;;;;;;0.90;0.40;;;;;;;16.71;98.34;100136.19;5091843;28;20208;-82
2023/07/31 01:52:14;;;;;;;0.73;0.50;;;;;;;16.70;98.57;100129.09;5091605;28;20212;-82
2023/07/31 01:54:40;;;;;;;1.70;0.60;;;;;;;16.66;98.90;100121.34;5091585;28;20212;-83
2023/07/31 01:57:07;;;;;;;0.93;0.57;;;;;;;16.64;99.61;100117.97;5091317;28;20226;-83
2023/07/31 01:59:35;;;;;;;0.93;0.60;;;;;;;16.61;100.00;100114.69;5090696;28;20213;-84
2023/07/31 02:02:01;;;;;;;2.40;0.60;;;;;;;16.58;100.00;100110.47;5094808;28;20231;-83
2023/07/31 02:04:28;;;;;;;0.60;0.47;;;;;;;16.57;100.00;100118.69;5094978;28;20203;-82
2023/07/31 02:06:54;;;;;;;1.17;0.50;;;;;;;16.54;100.00;100117.13;5094990;28;20222;-82
2023/07/31 02:09:21;;;;;;;2.03;0.60;;;;;;;16.50;100.00;100115.72;5095067;28;20219;-82
2023/07/31 02:11:47;;;;;;;0.60;0.60;;;;;;;16.50;100.00;100114.88;5094853;28;20215;-82
2023/07/31 02:14:14;;;;;;;1.70;0.60;;;;;;;16.45;100.00;100115.34;5094877;28;20217;-83
2023/07/31 02:16:42;;;;;;;0.60;0.60;;;;;;;16.43;100.00;100111.09;5094747;28;20718;-82
2023/07/31 02:19:09;;;;;;;1.23;0.60;;;;;;;16.43;100.00;100106.56;5095026;28;20206;-81
2023/07/31 02:21:35;;;;;;;0.60;0.20;;;;;;;16.46;100.00;100111.66;5095029;28;20588;-83
2023/07/31 02:24:02;;;;;;;1.30;0.57;;;;;;;16.44;100.00;100097.53;5094464;28;20211;-82
2023/07/31 02:26:28;;;;;;;0.80;0.50;;;;;;;16.45;100.00;100098.38;5094781;28;20236;-82
2023/07/31 02:28:54;;;;;;;0.90;0.60;;;;;;;16.45;100.00;100083.09;5094781;28;20555;-82
2023/07/31 02:31:21;;;;;;;1.43;0.50;;;;;;;16.44;100.00;100093.97;5094068;28;20213;-82
2023/07/31 02:33:49;;;;;;;0.50;0.40;;;;;;;16.45;100.00;100090.31;5095114;28;20210;-81
2023/07/31 02:36:15;;;;;;;0.50;0.43;;;;;;;16.44;100.00;100094.81;5094561;28;20626;-82
2023/07/31 02:38:42;;;;;;;1.97;0.50;;;;;;;16.43;100.00;100094.97;5091912;28;20224;-82
2023/07/31 02:41:08;;;;;;;0.70;0.70;;;;;;;16.43;100.00;100085.06;5074118;28;20207;-82
2023/07/31 02:43:35;;;;;;;0.77;0.40;;;;;;;16.43;100.00;100089.59;5074471;28;20202;-82
2023/07/31 02:46:01;;;;;;;1.00;0.50;;;;;;;16.42;100.00;100091.44;5073909;28;20237;-82
2023/07/31 02:48:27;;;;;;;1.07;0.80;;;;;;;16.43;100.00;100089.59;5074031;28;20207;-83
2023/07/31 02:50:55;;;;;;;0.90;0.50;;;;;;;16.45;100.00;100085.78;5074076;28;20212;-81
2023/07/31 02:53:22;;;;;;;0.47;0.40;;;;;;;16.45;100.00;100083.09;5090876;28;20215;-82
2023/07/31 02:55:49;;;;;;;1.57;0.57;;;;;;;16.47;100.00;100085.63;5084742;28;20230;-81
2023/07/31 02:58:15;;;;;;;0.67;0.67;;;;;;;16.49;100.00;100078.22;5073581;28;20239;-82
2023/07/31 03:00:43;;;;;;;1.23;0.50;;;;;;;16.50;100.00;100071.88;5074256;28;20238;-83
2023/07/31 03:03:09;;;;;;;0.90;0.30;;;;;;;16.48;100.00;100081.94;5073802;28;20596;-82
2023/07/31 03:05:36;;;;;;;0.47;0.40;;;;;;;16.49;100.00;100078.22;5082298;28;20329;-82
2023/07/31 03:08:04;;;;;;;0.87;0.87;;;;;;;16.49;100.00;100087.16;5087412;28;20221;-81
2023/07/31 03:10:31;;;;;;;0.60;0.40;;;;;;;16.50;100.00;100086.16;5076481;28;20245;-83
2023/07/31 03:12:57;;;;;;;1.17;0.60;;;;;;;16.50;100.00;100080.78;5073177;28;20210;-82
2023/07/31 03:15:24;;;;;;;1.57;0.60;;;;;;;16.50;100.00;100083.47;5090559;28;20207;-82
2023/07/31 03:17:50;;;;;;;0.80;0.70;;;;;;;16.52;100.00;100084.16;5093728;28;20210;-81
2023/07/31 03:20:17;;;;;;;1.07;0.50;;;;;;;16.50;100.00;100072.72;5094097;28;20242;-82
2023/07/31 03:22:43;;;;;;;2.57;0.50;;;;;;;16.51;100.00;100071.72;5074029;28;20219;-84
2023/07/31 03:25:11;;;;;;;1.27;0.60;;;;;;;16.49;100.00;100089.84;5086819;28;20211;-83
2023/07/31 03:27:38;;;;;;;0.70;0.60;;;;;;;16.50;100.00;100085.31;5092046;28;20223;-82
2023/07/31 03:30:05;;;;;;;0.87;0.50;;;;;;;16.50;100.00;100088.84;5088162;28;20199;-82
2023/07/31 03:32:31;;;;;;;0.70;0.60;;;;;;;16.50;100.00;100091.53;5085654;28;20207;-82
2023/07/31 03:34:58;;;;;;;0.97;0.77;;;;;;;16.50;100.00;100091.53;5089630;28;20218;-81
2023/07/31 03:37:24;;;;;;;1.17;0.60;;;;;;;16.49;100.00;100100.59;5092364;28;20712;-81
2023/07/31 03:39:51;;;;;;;1.27;0.50;;;;;;;16.46;100.00;100090.16;5084376;28;20203;-82
2023/07/31 03:42:19;;;;;;;0.70;0.50;;;;;;;16.44;100.00;100102.91;5085533;28;20222;-81
2023/07/31 03:44:45;;;;;;;0.83;0.50;;;;;;;16.42;100.00;100101.34;5084289;28;20214;-81
2023/07/31 03:47:12;;;;;;;0.60;0.60;;;;;;;16.41;100.00;100100.50;5086086;28;20231;-81
2023/07/31 03:49:38;;;;;;;1.33;0.67;;;;;;;16.40;100.00;100098.81;5080976;28;20203;-81
2023/07/31 03:52:05;;;;;;;0.90;0.70;;;;;;;16.39;100.00;100102.47;5087664;28;20537;-81
2023/07/31 03:54:31;;;;;;;1.20;0.53;;;;;;;16.41;100.00;100105.88;5080806;28;20567;-80
2023/07/31 03:56:58;;;;;;;2.03;0.83;;;;;;;16.39;100.00;100102.47;5089869;28;20233;-80
2023/07/31 03:59:26;;;;;;;2.10;0.60;;;;;;;16.36;100.00;100097.41;5083605;28;20222;-82
2023/07/31 04:01:52;;;;;;;0.77;0.60;;;;;;;16.36;100.00;100094.72;5082819;28;20208;-81
2023/07/31 04:04:18;;;;;;;1.43;0.60;;;;;;;16.31;100.00;100088.91;5084932;28;20212;-83
2023/07/31 04:06:45;;;;;;;1.20;0.90;;;;;;;16.28;100.00;100090.09;5086314;28;20218;-82
2023/07/31 04:09:11;;;;;;;1.03;0.60;;;;;;;16.26;100.00;100088.53;5085554;28;20210;-81
2023/07/31 04:11:39;;;;;;;0.90;0.60;;;;;;;16.23;100.00;100088.81;5089333;28;20218;-82
2023/07/31 04:14:05;;;;;;;0.97;0.60;;;;;;;16.20;100.00;100087.28;5088731;28;20210;-82
2023/07/31 04:16:33;;;;;;;1.30;0.63;;;;;;;16.17;100.00;100092.94;5087631;28;20268;-81
2023/07/31 04:18:59;;;;;;;1.07;0.60;;;;;;;16.15;100.00;100086.84;5091929;28;20614;-81
2023/07/31 04:21:26;;;;;;;1.10;0.70;;;;;;;16.14;100.00;100085.16;5090682;28;20210;-82
2023/07/31 04:23:55;;;;;;;2.70;0.40;;;;;;;16.11;100.00;100074.75;5088562;28;20579;-81
2023/07/31 04:26:22;;;;;;;0.67;0.40;;;;;;;16.11;100.00;100079.25;5080774;28;20319;-81
2023/07/31 04:28:48;;;;;;;0.87;0.50;;;;;;;16.10;100.00;100080.25;5082242;28;20209;-81
2023/07/31 04:31:15;;;;;;;0.70;0.60;;;;;;;16.09;100.00;100082.09;5084971;28;20651;-81
2023/07/31 04:33:42;;;;;;;0.90;0.60;;;;;;;16.10;100.00;100078.41;5089598;28;20238;-81
2023/07/31 04:36:09;;;;;;;0.60;0.50;;;;;;;16.09;100.00;100075.88;5091991;28;20234;-81
2023/07/31 04:38:35;;;;;;;0.50;0.30;;;;;;;16.08;100.00;100069.66;5084314;28;20218;-82
2023/07/31 04:41:02;;;;;;;0.30;0.23;;;;;;;16.07;100.00;100069.78;5089112;28;20510;-81
2023/07/31 04:43:28;;;;;;;0.40;0.40;;;;;;;16.06;100.00;100070.78;5092754;28;20592;-81
2023/07/31 04:45:55;;;;;;;0.30;0.20;;;;;;;16.06;100.00;100073.47;5080171;28;20746;-82
2023/07/31 04:48:21;;;;;;;0.30;0.30;;;;;;;16.06;100.00;100073.47;5074868;28;20654;-82
2023/07/31 04:50:49;;;;;;;0.40;0.30;;;;;;;16.07;100.00;100076.00;5083412;28;20213;-81
2023/07/31 04:53:15;;;;;;;1.17;0.20;;;;;;;16.06;100.00;100070.78;5090780;28;20646;-82
2023/07/31 04:55:42;;;;;;;0.20;0.20;;;;;;;16.04;100.00;100067.41;5091247;28;20226;-81
2023/07/31 04:58:08;;;;;;;1.67;0.60;;;;;;;16.05;100.00;100058.34;5086926;28;20224;-81
2023/07/31 05:00:35;;;;;;;0.63;0.50;;;;;;;16.05;100.00;100058.34;5079123;28;20205;-81
2023/07/31 05:03:01;;;;;;;0.87;0.70;;;;;;;16.08;100.00;100063.44;5091145;28;20224;-81
2023/07/31 05:05:28;;;;;;;2.13;1.00;;;;;;;16.08;100.00;100052.69;5090818;28;20202;-83
2023/07/31 05:07:55;;;;;;;2.40;1.40;;;;;;;16.07;100.00;100051.00;5088477;28;20226;-83
2023/07/31 05:10:22;;;;;;;2.83;1.80;;;;;;;16.08;100.00;100060.75;5085319;28;20221;-81
2023/07/31 05:12:48;;;;;;;3.10;1.80;;;;;;;16.09;100.00;100057.06;5093964;28;20207;-82
2023/07/31 05:15:15;;;;;;;3.30;2.10;;;;;;;16.12;100.00;100056.78;5079312;28;20205;-81
2023/07/31 05:17:41;;;;;;;2.30;1.87;;;;;;;16.12;100.00;100054.91;5083687;28;20229;-81
2023/07/31 05:20:09;;;;;;;3.20;2.20;;;;;;;16.15;100.00;100048.41;5082493;28;20199;-81
2023/07/31 05:22:35;;;;;;;2.47;2.07;;;;;;;16.17;100.00;100052.63;5079242;28;20230;-82
2023/07/31 05:25:03;;;;;;;5.10;3.10;;;;;;;16.19;100.00;100050.66;5091069;28;20234;-81
2023/07/31 05:27:30;;;;;;;4.10;3.57;;;;;;;16.19;100.00;100047.13;5075133;28;20242;-81
2023/07/31 05:29:57;;;;;;;5.43;3.80;;;;;;;16.18;100.00;100038.22;5075412;28;20218;-82
2023/07/31 05:32:23;;;;;;;9.93;4.67;;;;;;;16.17;100.00;100041.88;5084027;28;20201;-82
2023/07/31 05:34:51;;;;;;;6.67;4.30;;;;;;;16.20;100.00;100048.81;5089531;28;20210;-83
2023/07/31 05:37:18;;;;;;;7.70;5.20;;;;;;;16.19;100.00;100045.28;5085103;28;20223;-82
2023/07/31 05:39:44;;;;;;;7.23;5.33;;;;;;;16.22;100.00;100044.13;5099093;28;20213;-82
2023/07/31 05:42:12;;;;;;;6.73;4.83;;;;;;;16.22;100.00;100047.69;5091259;28;20301;-82
2023/07/31 05:44:39;;;;;;;7.20;5.07;;;;;;;16.25;100.00;100054.59;5092025;28;20674;-82
2023/07/31 05:47:05;;;;;;;7.10;5.03;;;;;;;16.26;100.00;100050.91;5091189;28;20315;-82
2023/07/31 05:49:32;;;;;;;8.10;5.20;;;;;;;16.26;100.00;100040.16;5092119;28;20226;-83
2023/07/31 05:51:58;;;;;;;7.60;4.80;;;;;;;16.29;100.00;100027.28;5091346;28;20204;-83
2023/07/31 05:54:25;;;;;;;8.70;5.17;;;;;;;16.28;100.00;100041.72;5077449;28;20201;-82
2023/07/31 05:56:52;;;;;;;5.63;4.33;;;;;;;16.30;100.00;100046.94;5071253;28;20701;-82
2023/07/31 05:59:19;;;;;;;8.27;5.77;;;;;;;16.31;100.00;100043.25;5079087;28;20532;-82
2023/07/31 06:01:46;;;;;;;7.70;4.73;;;;;;;16.33;100.00;100049.31;5071697;28;20581;-82
2023/07/31 06:04:12;;;;;;;9.67;4.80;;;;;;;16.34;100.00;100032.19;5076716;28;20225;-83
2023/07/31 06:06:39;;;;;;;6.93;4.17;;;;;;;16.35;100.00;100038.41;5088046;28;20231;-83
2023/07/31 06:09:06;;;;;;;4.60;4.03;;;;;;;16.34;100.00;100042.94;5082464;28;20240;-83
2023/07/31 06:11:33;;;;;;;4.87;3.67;;;;;;;16.34;100.00;100037.56;5090854;28;20207;-84
2023/07/31 06:13:59;;;;;;;4.93;3.33;;;;;;;16.35;100.00;100039.25;5090934;28;20182;-82
2023/07/31 06:16:27;;;;;;;4.07;3.10;;;;;;;16.36;100.00;100038.28;5090739;28;20220;-82
2023/07/31 06:18:54;;;;;;;5.23;3.10;;;;;;;16.41;100.00;100036.00;5090811;28;20215;-81
2023/07/31 06:21:20;;;;;;;5.17;3.20;;;;;;;16.40;100.00;100047.75;5086691;28;20211;-82
2023/07/31 06:23:47;;;;;;;5.13;3.80;;;;;;;16.41;100.00;100037.84;5070358;28;20611;-82
2023/07/31 06:26:13;;;;;;;5.87;4.30;;;;;;;16.39;100.00;100040.66;5070275;28;20227;-82
2023/07/31 06:28:41;;;;;;;6.77;5.57;;;;;;;16.44;100.00;100046.44;5070859;28;20681;-82
2023/07/31 06:31:07;;;;;;;8.00;4.77;;;;;;;16.42;100.00;100045.75;5070310;28;20214;-81
2023/07/31 06:33:35;;;;;;;6.37;4.47;;;;;;;16.41;100.00;100046.75;5070809;28;20204;-82
2023/07/31 06:36:01;;;;;;;6.30;5.10;;;;;;;16.42;100.00;100045.75;5089732;28;20596;-82
2023/07/31 06:38:28;;;;;;;8.33;5.60;;;;;;;16.44;100.00;100041.06;5090719;28;20210;-82
2023/07/31 06:40:55;;;;;;;10.60;5.57;;;;;;;16.43;100.00;100042.06;5082314;28;20269;-82
2023/07/31 06:43:21;;;;;;;11.43;6.47;;;;;;;16.46;100.00;100035.56;5081577;28;20217;-82
2023/07/31 06:45:50;;;;;;;9.80;6.23;;;;;;;16.45;100.00;100036.53;5085294;28;20215;-82
2023/07/31 06:48:16;;;;;;;9.30;6.27;;;;;;;16.43;100.00;100036.69;5090869;28;20291;-81
2023/07/31 06:50:44;;;;;;;10.87;7.33;;;;;;;16.42;100.00;100051.13;5091822;28;20584;-82
2023/07/31 06:53:11;;;;;;;11.07;7.00;;;;;;;16.42;100.00;100045.75;5085524;28;20673;-82
2023/07/31 06:55:37;;;;;;;12.93;7.23;;;;;;;16.43;100.00;100042.06;5093669;28;20216;-84
2023/07/31 06:58:04;;;;;;;8.17;6.53;;;;;;;16.39;100.00;100046.03;5090675;28;20203;-82
2023/07/31 07:00:32;;;;;;;13.03;8.10;;;;;;;16.39;100.00;100035.28;5081441;28;20610;-81
2023/07/31 07:02:58;;;;;;;14.07;8.40;;;;;;;16.40;100.00;100031.59;5083181;28;20224;-82
2023/07/31 07:05:25;;;;;;;9.67;6.47;;;;;;;16.45;100.00;100036.53;5093162;28;20216;-81
2023/07/31 07:07:53;;;;;;;13.10;7.60;;;;;;;16.49;100.00;100035.22;5090729;28;20214;-81
2023/07/31 07:10:20;;;;;;;15.17;8.23;;;;;;;16.45;100.00;100032.03;5092754;28;20583;-81
2023/07/31 07:12:46;;;;;;;11.97;7.43;;;;;;;16.46;100.00;100025.66;5089301;28;20223;-81
2023/07/31 07:15:13;;;;;;;12.00;7.10;;;;;;;16.46;100.00;100031.03;5082146;28;20211;-83
2023/07/31 07:17:39;;;;;;;11.50;6.80;;;;;;;16.47;100.00;100027.34;5084456;28;20224;-81
2023/07/31 07:20:07;;;;;;;12.47;6.67;;;;;;;16.47;100.00;100011.22;5092766;28;20255;-81
2023/07/31 07:22:34;;;;;;;13.30;6.87;;;;;;;16.49;100.00;100019.09;5094070;28;20581;-83
2023/07/31 07:25:02;;;;;;;11.43;6.37;;;;;;;16.49;100.00;100021.78;5093647;28;20231;-82
2023/07/31 07:27:28;;;;;;;10.03;6.57;;;;;;;16.51;100.00;100025.16;5093564;28;20233;-82
2023/07/31 07:29:55;;;;;;;10.67;6.57;;;;;;;16.53;100.00;100029.41;5092885;28;20255;-81
2023/07/31 07:32:22;;;;;;;10.00;6.33;;;;;;;16.55;100.00;100022.03;5084651;28;20197;-82
2023/07/31 07:34:49;;;;;;;9.93;6.20;;;;;;;16.62;100.00;100022.28;5093166;28;20213;-81
2023/07/31 07:37:15;;;;;;;9.33;6.03;;;;;;;16.65;100.00;100017.50;5092883;28;20600;-82
2023/07/31 07:39:42;;;;;;;10.57;6.43;;;;;;;16.65;100.00;100017.50;5093302;28;20203;-83
2023/07/31 07:42:10;;;;;;;7.93;5.53;;;;;;;16.67;100.00;100023.53;5092505;28;20192;-82
2023/07/31 07:44:36;;;;;;;8.83;5.47;;;;;;;16.69;100.00;100030.63;5089642;28;20589;-83
2023/07/31 07:47:03;;;;;;;10.73;5.07;;;;;;;16.70;100.00;100037.69;5092223;28;20230;-83
2023/07/31 07:49:29;;;;;;;9.70;6.07;;;;;;;16.71;100.00;100039.38;5072784;28;20199;-82
2023/07/31 07:51:56;;;;;;;8.03;5.53;;;;;;;16.74;100.00;100041.78;5090039;28;20213;-82
2023/07/31 07:54:23;;;;;;;14.23;6.37;;;;;;;16.77;100.00;100045.00;5084403;28;20203;-82
2023/07/31 07:56:49;;;;;;;9.63;5.90;;;;;;;16.79;100.00;100042.19;5082586;28;20685;-81
2023/07/31 07:59:17;;;;;;;9.10;5.23;;;;;;;16.84;100.00;100042.56;5084553;28;20205;-81
2023/07/31 08:01:43;;;;;;;13.53;6.03;;;;;;;16.85;100.00;100042.41;5079926;28;20219;-81
2023/07/31 08:04:10;;;;;;;9.90;5.53;;;;;;;16.87;100.00;100040.41;5092176;28;20705;-82
2023/07/31 08:06:36;;;;;;;6.50;4.70;;;;;;;16.89;100.00;100037.56;5090796;28;20714;-81
2023/07/31 08:09:06;;;;;;;9.33;5.80;;;;;;;16.89;100.00;100032.19;5084862;28;20208;-82
2023/07/31 08:11:32;;;;;;;8.63;6.13;;;;;;;16.90;100.00;100039.25;5084887;28;20242;-81
2023/07/31 08:13:59;;;;;;;11.03;5.47;;;;;;;16.89;100.00;100043.78;5086831;28;20196;-81
2023/07/31 08:16:27;;;;;;;9.63;5.97;;;;;;;16.89;100.00;100038.41;5087775;28;20222;-81
2023/07/31 08:18:53;;;;;;;10.87;5.40;;;;;;;16.91;100.00;100030.19;5083249;28;20202;-84
2023/07/31 08:21:20;;;;;;;7.37;5.33;;;;;;;16.95;100.00;100037.81;5084560;28;20946;-82
2023/07/31 08:23:46;;;;;;;8.67;5.40;;;;;;;16.97;100.00;100034.97;5091485;28;20225;-82
2023/07/31 08:26:16;;;;;;;8.27;5.20;;;;;;;16.98;100.00;100037.50;5089308;28;20248;-81
2023/07/31 08:28:42;;;;;;;8.87;5.80;;;;;;;16.99;100.00;100023.06;5080161;28;20212;-83
2023/07/31 08:31:09;;;;;;;8.93;5.77;;;;;;;17.03;100.00;100028.97;5091161;28;20242;-83
2023/07/31 08:33:36;;;;;;;9.33;5.10;;;;;;;17.09;100.00;100027.50;5086851;28;20198;-82
2023/07/31 08:36:03;;;;;;;8.03;5.07;;;;;;;17.11;100.00;100030.91;5090594;28;20237;-83
2023/07/31 08:38:30;;;;;;;8.50;5.40;;;;;;;17.12;100.00;100017.28;5087472;28;20202;-83
2023/07/31 08:40:57;;;;;;;9.50;4.93;;;;;;;17.15;100.00;100016.97;5077673;28;20256;-81
2023/07/31 08:43:27;;;;;;;7.43;5.07;;;;;;;17.17;100.00;100017.69;5087043;28;20223;-82
2023/07/31 08:45:53;;;;;;;8.80;4.93;;;;;;;17.19;100.00;100023.75;5090793;28;20859;-82
2023/07/31 08:48:21;;;;;;;7.60;4.93;;;;;;;17.24;100.00;100005.28;5083818;28;20596;-81
2023/07/31 08:50:49;;;;;;;9.03;4.13;;;;;;;17.24;100.00;100009.81;5076436;28;20220;-80
2023/07/31 08:53:16;;;;;;;5.70;4.00;;;;;;;17.25;100.00;100008.81;5072740;28;20212;-81
2023/07/31 08:55:43;;;;;;;7.83;4.17;;;;;;;17.23;100.00;100013.50;5072243;28;20248;-80
2023/07/31 08:58:13;;;;;;;6.97;4.07;;;;;;;17.23;100.00;100003.59;5072526;28;20217;-81
2023/07/31 09:00:41;;;;;;;5.23;3.53;;;;;;;17.24;100.00;99994.50;5072690;28;20587;-81
2023/07/31 09:03:10;;;;;;;5.00;3.70;;;;;;;17.24;100.00;99999.91;5072944;28;20223;-82
2023/07/31 09:05:39;;;;;;;5.30;3.60;;;;;;;17.27;100.00;100002.28;5085216;28;20210;-82
2023/07/31 09:08:10;;;;;;;5.70;2.90;;;;;;;17.22;100.00;99987.59;5087265;28;20236;-81
2023/07/31 09:10:36;;;;;;;4.53;2.60;;;;;;;17.20;100.00;99987.75;5086450;28;20201;-82
2023/07/31 09:13:04;;;;;;;4.57;2.90;;;;;;;17.19;100.00;99990.63;5087397;28;20215;-82
2023/07/31 09:15:31;;;;;;;4.03;2.53;;;;;;;17.20;100.00;99989.59;5085806;28;20198;-82
2023/07/31 09:18:01;;;;;;;4.30;2.40;;;;;;;17.22;100.00;99987.59;5084233;28;20206;-80
2023/07/31 09:20:28;;;;;;;3.97;2.43;;;;;;;17.24;100.00;99986.44;5084814;28;20251;-81
2023/07/31 09:22:56;;;;;;;2.90;2.40;;;;;;;17.22;100.00;99974.97;5079493;28;20202;-82
2023/07/31 09:25:25;;;;;;;2.60;1.90;;;;;;;17.24;100.00;99977.53;5093518;28;20619;-81
2023/07/31 09:27:53;;;;;;;3.33;1.80;;;;;;;17.24;100.00;99978.38;5091402;28;20803;-81
2023/07/31 09:30:21;;;;;;;2.00;1.50;;;;;;;17.26;100.00;99981.75;5078089;28;20201;-80
2023/07/31 09:32:50;;;;;;;2.10;1.63;;;;;;;17.27;100.00;99978.06;5086031;28;20223;-81
2023/07/31 09:35:21;;;;;;;1.63;1.40;;;;;;;17.30;100.00;99976.91;5086718;28;20202;-81
2023/07/31 09:37:51;;;;;;;3.10;2.07;;;;;;;17.31;100.00;99967.84;5083573;28;20228;-81
2023/07/31 09:40:30;;;;;;;3.07;1.90;;;;;;;17.30;100.00;99972.38;5088678;28;20699;-82
2023/07/31 09:43:00;;;;;;;3.10;2.07;;;;;;;17.30;100.00;99972.38;5086160;28;20221;-82
2023/07/31 09:45:27;;;;;;;3.93;2.07;;;;;;;17.32;100.00;99964.97;5079171;28;20249;-81
2023/07/31 09:47:54;;;;;;;4.20;2.13;;;;;;;17.32;100.00;99954.22;5090094;28;20200;-81
2023/07/31 09:50:22;;;;;;;3.93;2.33;;;;;;;17.32;100.00;99956.91;5081930;28;20212;-82
2023/07/31 09:52:49;;;;;;;3.23;2.30;;;;;;;17.32;100.00;99956.06;5090246;28;20213;-81
2023/07/31 09:55:15;;;;;;;4.50;2.47;;;;;;;17.33;100.00;99958.59;5092093;28;20559;-81
2023/07/31 09:57:47;;;;;;;3.20;2.00;;;;;;;17.35;100.00;99956.59;5091256;28;20232;-81
2023/07/31 10:00:16;;;;;;;4.67;2.43;;;;;;;17.34;100.00;99946.84;5089787;28;20211;-82
2023/07/31 10:02:45;;;;;;;3.83;2.40;;;;;;;17.35;100.00;99956.59;5089417;28;20208;-83
2023/07/31 10:05:14;;;;;;;3.83;2.40;;;;;;;17.39;100.00;99945.50;5082351;28;20233;-80
2023/07/31 10:07:43;;;;;;;2.40;2.07;;;;;;;17.43;100.00;99952.25;5079911;28;20217;-81
2023/07/31 10:10:11;;;;;;;2.90;2.53;;;;;;;17.46;100.00;99942.03;5092524;28;20680;-81
2023/07/31 10:12:38;;;;;;;3.23;2.23;;;;;;;17.50;100.00;99945.25;5086940;28;20211;-82
2023/07/31 10:15:09;;;;;;;2.50;2.30;;;;;;;17.56;100.00;99936.53;5079579;28;20202;-81
2023/07/31 10:17:36;;;;;;;4.23;2.83;;;;;;;17.61;100.00;99947.66;5091416;28;20586;-82
2023/07/31 10:20:04;;;;;;;3.23;2.27;;;;;;;17.65;100.00;99939.16;5093648;28;20255;-81
2023/07/31 10:22:31;;;;;;;3.10;2.60;;;;;;;17.71;100.00;99943.06;5095172;28;20574;-81
2023/07/31 10:24:59;;;;;;;3.10;2.10;;;;;;;17.72;100.00;99944.75;5095088;28;20226;-81
2023/07/31 10:27:26;;;;;;;3.87;2.63;;;;;;;17.76;100.00;99940.72;5094744;28;20230;-81
2023/07/31 10:29:55;;;;;;;4.13;2.60;;;;;;;17.79;100.00;99936.84;5094911;28;20216;-81
2023/07/31 10:32:24;;;;;;;4.27;2.40;;;;;;;17.81;100.00;99933.00;5094580;28;20218;-81
2023/07/31 10:34:52;;;;;;;3.33;2.30;;;;;;;17.86;100.00;99932.53;5095105;28;20211;-81
2023/07/31 10:37:24;;;;;;;2.73;2.53;;;;;;;17.93;100.00;99930.84;5094817;28;20231;-81
2023/07/31 10:39:58;;;;;;;2.80;2.30;;;;;;;17.96;100.00;99934.06;5095378;28;20437;-82
2023/07/31 10:42:33;;;;;;;2.23;2.03;;;;;;;18.03;100.00;99928.91;5095154;28;20576;-83
2023/07/31 10:45:02;;;;;;;3.07;2.37;;;;;;;18.11;100.00;99917.28;5087403;28;20778;-81
2023/07/31 10:47:30;;;;;;;4.80;2.37;;;;;;;18.21;100.00;99908.06;5074586;28;20233;-82
2023/07/31 10:50:18;;;;;;;2.53;2.20;;;;;;;18.35;100.00;99906.59;5074528;28;20214;-82
2023/07/31 10:52:48;;;;;;;3.93;2.33;;;;;;;18.46;100.00;99908.13;5074586;28;20192;-83
2023/07/31 10:55:26;;;;;;;3.97;2.53;;;;;;;18.61;100.00;99904.66;5073694;28;20204;-83
2023/07/31 10:57:53;;;;;;;4.40;2.30;;;;;;;18.76;100.00;99907.53;5073979;28;20195;-82
2023/07/31 11:00:22;;;;;;;3.50;2.63;;;;;;;18.89;100.00;99893.53;5074427;28;20217;-83
2023/07/31 11:03:01;;;;;;;3.87;3.03;;;;;;;19.01;100.00;99905.66;5077019;28;20207;-80
2023/07/31 11:05:49;;;;;;;4.50;2.30;;;;;;;19.07;98.76;99892.34;5081321;28;20251;-81
2023/07/31 11:08:19;;;;;;;3.63;2.10;;;;;;;19.14;95.60;99897.06;5089649;28;20214;-82
2023/07/31 11:10:46;;;;;;;2.33;1.70;;;;;;;19.14;93.34;99899.78;5090915;28;20209;-81
2023/07/31 11:13:14;;;;;;;3.30;2.13;;;;;;;19.16;92.54;99887.78;5085749;28;20219;-81
2023/07/31 11:15:40;;;;;;;3.33;1.63;;;;;;;19.22;92.81;99895.19;5084257;28;20226;-81
2023/07/31 11:18:10;;;;;;;2.90;2.20;;;;;;;19.26;91.48;99896.53;5083430;28;20208;-81
2023/07/31 11:20:37;;;;;;;3.03;2.33;;;;;;;19.24;89.79;99890.47;5093633;28;20568;-81